createdAt,value
2023-11-18T00:00:49.419Z,996.053
2023-11-18T00:02:49.581Z,995.943
2023-11-18T00:04:50.001Z,995.973
2023-11-18T00:06:50.092Z,996.024
2023-11-18T00:08:50.259Z,996.032
2023-11-18T00:10:49.383Z,996.115
2023-11-18T00:12:49.599Z,996.072
2023-11-18T00:14:49.649Z,996.072
2023-11-18T00:16:49.733Z,996.072
2023-11-18T00:18:49.806Z,996.165
2023-11-18T00:20:50.001Z,996.140
2023-11-18T00:22:50.071Z,996.152
2023-11-18T00:24:50.321Z,996.156
2023-11-18T00:26:49.391Z,996.133
2023-11-18T00:28:49.628Z,996.068
2023-11-18T00:30:49.736Z,996.041
2023-11-18T00:32:50.104Z,996.087
2023-11-18T00:34:49.642Z,996.093
2023-11-18T00:36:49.835Z,996.051
2023-11-18T00:38:49.963Z,996.150
2023-11-18T00:40:50.064Z,996.017
2023-11-18T00:42:50.226Z,996.098
2023-11-18T00:44:49.366Z,996.111
2023-11-18T00:46:49.562Z,996.060
2023-11-18T00:48:49.861Z,996.030
2023-11-18T00:50:50.111Z,996.041
2023-11-18T00:52:50.473Z,996.037
2023-11-18T00:54:49.850Z,996.002
2023-11-18T00:56:50.033Z,996.042
2023-11-18T00:58:50.186Z,996.102
2023-11-18T01:00:50.272Z,996.055
2023-11-18T01:02:49.493Z,996.080
2023-11-18T01:04:49.688Z,996.096
2023-11-18T01:06:49.947Z,996.067
2023-11-18T01:08:50.261Z,996.056
2023-11-18T01:10:49.502Z,996.063
2023-11-18T01:12:49.633Z,996.066
2023-11-18T01:14:49.747Z,996.146
2023-11-18T01:16:49.912Z,996.089
2023-11-18T01:18:50.073Z,996.132
2023-11-18T01:20:50.237Z,996.180
2023-11-18T01:22:50.591Z,996.106
2023-11-18T01:24:49.680Z,996.154
2023-11-18T01:26:49.729Z,996.185
2023-11-18T01:28:49.948Z,996.135
2023-11-18T01:30:50.098Z,996.062
2023-11-18T01:32:49.497Z,996.094
2023-11-18T01:34:49.459Z,996.239
2023-11-18T01:36:49.600Z,996.159
2023-11-18T01:38:49.652Z,996.243
2023-11-18T01:40:49.878Z,996.239
2023-11-18T01:42:50.190Z,996.248
2023-11-18T01:44:50.263Z,996.261
2023-11-18T01:46:49.509Z,996.239
2023-11-18T01:48:49.488Z,996.250
2023-11-18T01:50:49.581Z,996.352
2023-11-18T01:52:49.861Z,996.365
2023-11-18T01:54:50.096Z,996.321
2023-11-18T01:56:50.269Z,996.321
2023-11-18T01:58:49.381Z,996.336
2023-11-18T02:00:49.517Z,996.293
2023-11-18T02:02:49.833Z,996.307
2023-11-18T02:04:50.064Z,996.319
2023-11-18T02:06:50.263Z,996.248
2023-11-18T02:08:49.611Z,996.283
2023-11-18T02:10:49.773Z,996.245
2023-11-18T02:12:49.957Z,996.313
2023-11-18T02:14:50.216Z,996.301
2023-11-18T02:16:49.407Z,996.269
2023-11-18T02:18:49.693Z,996.374
2023-11-18T02:20:49.922Z,996.267
2023-11-18T02:22:50.093Z,996.342
2023-11-18T02:24:50.277Z,996.299
2023-11-18T02:26:50.301Z,996.379
2023-11-18T02:28:49.565Z,996.314
2023-11-18T02:30:49.867Z,996.410
2023-11-18T02:32:50.087Z,996.361
2023-11-18T02:34:49.459Z,996.426
2023-11-18T02:36:49.478Z,996.364
2023-11-18T02:38:49.589Z,996.361
2023-11-18T02:40:49.713Z,996.385
2023-11-18T02:42:49.843Z,996.367
2023-11-18T02:44:50.096Z,996.333
2023-11-18T02:46:50.329Z,996.382
2023-11-18T02:48:49.460Z,996.487
2023-11-18T02:50:49.549Z,996.423
2023-11-18T02:52:49.777Z,996.413
2023-11-18T02:54:50.080Z,996.357
2023-11-18T02:56:50.085Z,996.481
2023-11-18T02:58:50.320Z,996.538
2023-11-18T03:00:49.545Z,996.474
2023-11-18T03:02:49.856Z,996.437
2023-11-18T03:04:50.208Z,996.526
2023-11-18T03:06:49.522Z,996.550
2023-11-18T03:08:49.612Z,996.563
2023-11-18T03:10:49.672Z,996.612
2023-11-18T03:12:49.796Z,996.671
2023-11-18T03:14:50.091Z,996.594
2023-11-18T03:16:50.315Z,996.537
2023-11-18T03:18:50.352Z,996.584
2023-11-18T03:20:49.592Z,996.580
2023-11-18T03:22:49.796Z,996.485
2023-11-18T03:24:49.925Z,996.510
2023-11-18T03:26:50.074Z,996.499
2023-11-18T03:28:50.258Z,996.598
2023-11-18T03:30:50.359Z,996.439
2023-11-18T03:32:49.644Z,996.594
2023-11-18T03:34:49.981Z,996.541
2023-11-18T03:36:50.050Z,996.529
2023-11-18T03:38:50.209Z,996.505
2023-11-18T03:40:49.543Z,996.641
2023-11-18T03:42:49.665Z,996.656
2023-11-18T03:44:49.749Z,996.662
2023-11-18T03:46:49.851Z,996.621
2023-11-18T03:48:49.965Z,996.640
2023-11-18T03:50:50.124Z,996.708
2023-11-18T03:52:50.211Z,996.599
2023-11-18T03:54:49.455Z,996.721
2023-11-18T03:56:49.506Z,996.755
2023-11-18T03:58:49.728Z,996.660
2023-11-18T04:00:49.841Z,996.695
2023-11-18T04:02:49.914Z,996.729
2023-11-18T04:04:50.167Z,996.682
2023-11-18T04:06:50.281Z,996.720
2023-11-18T04:08:49.556Z,996.837
2023-11-18T04:10:49.674Z,996.832
2023-11-18T04:12:49.789Z,996.720
2023-11-18T04:14:49.844Z,996.720
2023-11-18T04:16:50.083Z,996.801
2023-11-18T04:18:50.259Z,996.699
2023-11-18T04:20:51.906Z,996.655
2023-11-18T04:22:50.084Z,996.682
2023-11-18T04:24:50.034Z,996.675
2023-11-18T04:26:50.158Z,996.733
2023-11-18T04:28:50.237Z,996.729
2023-11-18T04:30:49.458Z,996.719
2023-11-18T04:32:49.658Z,996.773
2023-11-18T04:34:49.953Z,996.743
2023-11-18T04:36:50.166Z,996.796
2023-11-18T04:38:50.258Z,996.698
2023-11-18T04:40:49.431Z,996.748
2023-11-18T04:42:49.439Z,996.682
2023-11-18T04:44:49.727Z,996.727
2023-11-18T04:46:49.977Z,996.785
2023-11-18T04:48:50.396Z,996.688
2023-11-18T04:50:49.740Z,996.641
2023-11-18T04:52:49.933Z,996.580
2023-11-18T04:54:50.105Z,996.642
2023-11-18T04:56:50.289Z,996.620
2023-11-18T04:58:49.526Z,996.569
2023-11-18T05:00:49.721Z,996.590
2023-11-18T05:02:50.004Z,996.528
2023-11-18T05:04:50.312Z,996.516
2023-11-18T05:06:50.314Z,996.433
2023-11-18T05:08:49.593Z,996.488
2023-11-18T05:10:49.776Z,996.461
2023-11-18T05:12:49.828Z,996.409
2023-11-18T05:14:49.950Z,996.427
2023-11-18T05:16:50.150Z,996.469
2023-11-18T05:18:50.284Z,996.582
2023-11-18T05:20:49.588Z,996.610
2023-11-18T05:22:49.704Z,996.571
2023-11-18T05:24:49.881Z,996.621
2023-11-18T05:26:49.970Z,996.599
2023-11-18T05:28:50.031Z,996.705
2023-11-18T05:30:50.351Z,996.597
2023-11-18T05:32:49.636Z,996.638
2023-11-18T05:34:49.773Z,996.594
2023-11-18T05:36:49.866Z,996.689
2023-11-18T05:38:50.004Z,996.650
2023-11-18T05:40:50.060Z,996.569
2023-11-18T05:42:50.272Z,996.594
2023-11-18T05:44:49.446Z,996.570
2023-11-18T05:46:49.711Z,996.670
2023-11-18T05:48:49.847Z,996.700
2023-11-18T05:50:50.027Z,996.691
2023-11-18T05:52:50.271Z,996.594
2023-11-18T05:54:49.461Z,996.675
2023-11-18T05:56:49.571Z,996.691
2023-11-18T05:58:49.619Z,996.656
2023-11-18T06:00:49.686Z,996.660
2023-11-18T06:02:49.952Z,996.738
2023-11-18T06:04:50.157Z,996.684
2023-11-18T06:06:49.461Z,996.684
2023-11-18T06:08:49.569Z,996.748
2023-11-18T06:10:49.669Z,996.666
2023-11-18T06:12:49.835Z,996.792
2023-11-18T06:14:50.041Z,996.729
2023-11-18T06:16:50.389Z,996.681
2023-11-18T06:18:49.586Z,996.760
2023-11-18T06:20:49.669Z,996.753
2023-11-18T06:22:49.715Z,996.792
2023-11-18T06:24:49.853Z,996.740
2023-11-18T06:26:50.195Z,996.835
2023-11-18T06:28:49.359Z,996.872
2023-11-18T06:30:49.569Z,996.825
2023-11-18T06:32:49.734Z,996.825
2023-11-18T06:34:49.940Z,996.817
2023-11-18T06:36:50.178Z,996.805
2023-11-18T06:38:50.339Z,996.800
2023-11-18T06:40:49.599Z,996.752
2023-11-18T06:42:49.710Z,996.832
2023-11-18T06:44:49.905Z,996.889
2023-11-18T06:46:50.141Z,996.756
2023-11-18T06:48:50.248Z,996.672
2023-11-18T06:50:50.331Z,996.805
2023-11-18T06:52:49.655Z,996.719
2023-11-18T06:54:49.685Z,996.784
2023-11-18T06:56:49.658Z,996.727
2023-11-18T06:58:49.992Z,996.732
2023-11-18T07:00:50.215Z,996.711
2023-11-18T07:02:49.371Z,996.715
2023-11-18T07:04:49.621Z,996.674
2023-11-18T07:06:49.847Z,996.746
2023-11-18T07:08:50.028Z,996.723
2023-11-18T07:10:50.175Z,996.842
2023-11-18T07:12:49.444Z,996.850
2023-11-18T07:14:49.653Z,996.936
2023-11-18T07:16:49.805Z,997.004
2023-11-18T07:18:49.888Z,997.003
2023-11-18T07:20:50.196Z,997.096
2023-11-18T07:22:50.310Z,997.089
2023-11-18T07:24:49.626Z,997.064
2023-11-18T07:26:50.083Z,997.098
2023-11-18T07:28:49.617Z,997.175
2023-11-18T07:30:49.609Z,997.144
2023-11-18T07:32:49.758Z,997.103
2023-11-18T07:34:50.114Z,997.165
2023-11-18T07:36:50.178Z,997.139
2023-11-18T07:38:49.396Z,997.206
2023-11-18T07:40:49.608Z,997.195
2023-11-18T07:42:50.038Z,997.220
2023-11-18T07:44:50.133Z,997.235
2023-11-18T07:46:50.309Z,997.292
2023-11-18T07:48:49.484Z,997.363
2023-11-18T07:50:49.785Z,997.370
2023-11-18T07:52:49.949Z,997.405
2023-11-18T07:54:52.383Z,997.473
2023-11-18T07:56:49.586Z,997.425
2023-11-18T07:58:49.806Z,997.386
2023-11-18T08:00:49.910Z,997.289
2023-11-18T08:02:50.191Z,997.437
2023-11-18T08:04:49.427Z,997.416
2023-11-18T08:06:49.531Z,997.473
2023-11-18T08:08:49.807Z,997.623
2023-11-18T08:10:49.953Z,997.589
2023-11-18T08:12:50.146Z,997.593
2023-11-18T08:14:50.073Z,997.687
2023-11-18T08:16:50.454Z,997.725
2023-11-18T08:18:49.588Z,997.646
2023-11-18T08:20:49.698Z,997.594
2023-11-18T08:22:49.956Z,997.614
2023-11-18T08:24:50.037Z,997.568
2023-11-18T08:26:50.299Z,997.409
2023-11-18T08:28:49.684Z,997.469
2023-11-18T08:30:49.994Z,997.427
2023-11-18T08:32:50.305Z,997.338
2023-11-18T08:34:49.699Z,997.304
2023-11-18T08:36:49.756Z,997.267
2023-11-18T08:38:50.022Z,997.267
2023-11-18T08:40:50.343Z,997.536
2023-11-18T08:42:49.522Z,997.539
2023-11-18T08:44:49.770Z,997.462
2023-11-18T08:46:50.009Z,997.395
2023-11-18T08:48:50.112Z,997.421
2023-11-18T08:50:50.054Z,997.429
2023-11-18T08:52:49.510Z,997.515
2023-11-18T08:54:49.802Z,997.603
2023-11-18T08:56:50.053Z,997.553
2023-11-18T08:58:50.173Z,997.597
2023-11-18T09:00:50.305Z,997.537
2023-11-18T09:02:54.231Z,997.577
2023-11-18T09:04:49.959Z,997.577
2023-11-18T09:06:50.085Z,997.597
2023-11-18T09:08:50.104Z,997.740
2023-11-18T09:10:49.445Z,997.629
2023-11-18T09:12:49.617Z,997.607
2023-11-18T09:14:49.753Z,997.680
2023-11-18T09:16:49.759Z,997.585
2023-11-18T09:18:50.070Z,997.609
2023-11-18T09:20:50.184Z,997.650
2023-11-18T09:22:50.273Z,997.576
2023-11-18T09:24:49.428Z,997.483
2023-11-18T09:26:49.502Z,997.431
2023-11-18T09:28:49.804Z,997.385
2023-11-18T09:30:49.794Z,997.427
2023-11-18T09:32:49.953Z,997.303
2023-11-18T09:34:50.268Z,997.342
2023-11-18T09:36:49.598Z,997.397
2023-11-18T09:38:49.875Z,997.356
2023-11-18T09:40:50.091Z,997.385
2023-11-18T09:42:50.237Z,997.450
2023-11-18T09:44:49.431Z,997.446
2023-11-18T09:46:49.472Z,997.455
2023-11-18T09:48:49.602Z,997.493
2023-11-18T09:50:49.650Z,997.456
2023-11-18T09:52:49.813Z,997.476
2023-11-18T09:54:49.985Z,997.453
2023-11-18T09:56:50.054Z,997.516
2023-11-18T09:58:50.148Z,997.521
2023-11-18T10:00:49.418Z,997.453
2023-11-18T10:02:49.926Z,997.440
2023-11-18T10:04:50.168Z,997.338
2023-11-18T10:06:50.255Z,997.496
2023-11-18T10:08:50.336Z,997.380
2023-11-18T10:10:49.639Z,997.322
2023-11-18T10:12:49.777Z,997.385
2023-11-18T10:14:49.809Z,997.378
2023-11-18T10:16:49.947Z,997.396
2023-11-18T10:18:50.181Z,997.301
2023-11-18T10:20:49.639Z,997.247
2023-11-18T10:22:49.701Z,997.324
2023-11-18T10:24:49.706Z,997.412
2023-11-18T10:26:49.759Z,997.442
2023-11-18T10:28:49.951Z,997.385
2023-11-18T10:30:50.150Z,997.419
2023-11-18T10:32:50.255Z,997.466
2023-11-18T10:34:49.366Z,997.415
2023-11-18T10:36:49.426Z,997.415
2023-11-18T10:38:49.759Z,997.303
2023-11-18T10:40:49.971Z,997.303
2023-11-18T10:42:50.288Z,997.422
2023-11-18T10:44:50.344Z,997.415
2023-11-18T10:46:49.625Z,997.462
2023-11-18T10:48:49.910Z,997.492
2023-11-18T10:50:49.867Z,997.515
2023-11-18T10:52:49.880Z,997.483
2023-11-18T10:54:50.015Z,997.464
2023-11-18T10:56:50.098Z,997.522
2023-11-18T10:58:50.266Z,997.487
2023-11-18T11:00:50.387Z,997.439
2023-11-18T11:02:49.486Z,997.422
2023-11-18T11:04:49.845Z,997.399
2023-11-18T11:06:50.062Z,997.293
2023-11-18T11:08:50.244Z,997.398
2023-11-18T11:10:49.426Z,997.404
2023-11-18T11:12:49.642Z,997.233
2023-11-18T11:14:49.766Z,997.221
2023-11-18T11:16:49.944Z,997.305
2023-11-18T11:18:50.122Z,997.349
2023-11-18T11:20:50.349Z,997.356
2023-11-18T11:22:49.714Z,997.382
2023-11-18T11:24:49.871Z,997.357
2023-11-18T11:26:50.003Z,997.267
2023-11-18T11:28:50.366Z,997.304
2023-11-18T11:30:49.646Z,997.258
2023-11-18T11:32:49.802Z,997.314
2023-11-18T11:34:49.908Z,997.270
2023-11-18T11:36:50.010Z,997.338
2023-11-18T11:38:50.052Z,997.281
2023-11-18T11:40:50.157Z,997.263
2023-11-18T11:42:50.130Z,997.203
2023-11-18T11:44:50.177Z,997.201
2023-11-18T11:46:50.421Z,997.042
2023-11-18T11:48:49.879Z,997.104
2023-11-18T11:50:50.015Z,997.131
2023-11-18T11:52:50.265Z,997.199
2023-11-18T11:54:49.356Z,997.112
2023-11-18T11:56:49.422Z,997.083
2023-11-18T11:58:49.457Z,996.960
2023-11-18T12:00:49.500Z,996.901
2023-11-18T12:02:49.630Z,996.848
2023-11-18T12:04:50.010Z,996.698
2023-11-18T12:06:49.408Z,996.761
2023-11-18T12:08:49.504Z,996.738
2023-11-18T12:10:49.611Z,996.671
2023-11-18T12:12:49.744Z,996.666
2023-11-18T12:14:50.047Z,996.582
2023-11-18T12:16:50.256Z,996.545
2023-11-18T12:18:50.210Z,996.381
2023-11-18T12:20:49.673Z,996.369
2023-11-18T12:22:49.777Z,996.299
2023-11-18T12:24:50.073Z,996.125
2023-11-18T12:26:50.143Z,996.125
2023-11-18T12:28:50.243Z,996.121
2023-11-18T12:30:49.487Z,996.015
2023-11-18T12:32:49.661Z,996.055
2023-11-18T12:34:49.803Z,996.114
2023-11-18T12:36:49.905Z,996.015
2023-11-18T12:38:49.930Z,995.865
2023-11-18T12:40:50.030Z,995.800
2023-11-18T12:42:50.314Z,995.741
2023-11-18T12:44:49.607Z,995.763
2023-11-18T12:46:49.757Z,995.759
2023-11-18T12:48:49.961Z,995.778
2023-11-18T12:50:50.280Z,995.792
2023-11-18T12:52:49.569Z,995.731
2023-11-18T12:54:49.700Z,995.809
2023-11-18T12:56:49.873Z,995.722
2023-11-18T12:58:50.247Z,995.759
2023-11-18T13:00:49.355Z,995.691
2023-11-18T13:02:49.942Z,995.789
2023-11-18T13:04:49.450Z,995.746
2023-11-18T13:06:49.752Z,995.742
2023-11-18T13:08:49.825Z,995.788
2023-11-18T13:10:50.037Z,995.822
2023-11-18T13:12:50.141Z,995.868
2023-11-18T13:14:50.217Z,995.743
2023-11-18T13:16:49.401Z,995.664
2023-11-18T13:18:49.575Z,995.663
2023-11-18T13:20:49.556Z,995.632
2023-11-18T13:22:49.752Z,995.649
2023-11-18T13:24:49.865Z,995.584
2023-11-18T13:26:49.980Z,995.634
2023-11-18T13:28:50.372Z,995.610
2023-11-18T13:30:49.724Z,995.579
2023-11-18T13:32:49.866Z,995.671
2023-11-18T13:34:50.246Z,995.665
2023-11-18T13:36:49.505Z,995.695
2023-11-18T13:38:49.536Z,995.605
2023-11-18T13:40:49.846Z,995.663
2023-11-18T13:42:50.087Z,995.618
2023-11-18T13:44:50.104Z,995.726
2023-11-18T13:46:50.303Z,995.552
2023-11-18T13:48:49.547Z,995.635
2023-11-18T13:50:49.582Z,995.594
2023-11-18T13:52:49.806Z,995.570
2023-11-18T13:54:49.897Z,995.535
2023-11-18T13:56:50.163Z,995.481
2023-11-18T13:58:50.187Z,995.447
2023-11-18T14:00:49.364Z,995.379
2023-11-18T14:02:49.671Z,995.155
2023-11-18T14:04:50.056Z,995.104
2023-11-18T14:06:50.311Z,995.150
2023-11-18T14:08:49.582Z,995.130
2023-11-18T14:10:58.477Z,995.137
2023-11-18T14:12:49.726Z,995.217
2023-11-18T14:14:49.759Z,995.178
2023-11-18T14:16:49.821Z,995.250
2023-11-18T14:18:49.909Z,995.186
2023-11-18T14:20:49.873Z,995.223
2023-11-18T14:22:50.756Z,995.341
2023-11-18T14:24:49.753Z,995.310
2023-11-18T14:26:49.793Z,995.268
2023-11-18T14:28:49.857Z,995.174
2023-11-18T14:30:50.149Z,995.185
2023-11-18T14:32:49.448Z,995.207
2023-11-18T14:34:49.765Z,995.260
2023-11-18T14:36:49.932Z,995.275
2023-11-18T14:38:50.030Z,995.196
2023-11-18T14:40:50.132Z,995.036
2023-11-18T14:42:50.283Z,994.976
2023-11-18T14:44:50.218Z,995.018
2023-11-18T14:46:49.426Z,995.028
2023-11-18T14:48:49.676Z,994.942
2023-11-18T14:50:49.662Z,994.949
2023-11-18T14:52:49.975Z,994.849
2023-11-18T14:54:50.273Z,994.912
2023-11-18T14:56:49.457Z,994.844
2023-11-18T14:58:49.544Z,994.852
2023-11-18T15:00:49.750Z,994.879
2023-11-18T15:02:49.914Z,994.712
2023-11-18T15:04:50.107Z,994.771
2023-11-18T15:06:50.234Z,994.667
2023-11-18T15:08:50.309Z,994.547
2023-11-18T15:10:49.574Z,994.665
2023-11-18T15:12:49.523Z,994.521
2023-11-18T15:14:49.550Z,994.499
2023-11-18T15:16:49.677Z,994.415
2023-11-18T15:18:49.789Z,994.401
2023-11-18T15:20:50.120Z,994.337
2023-11-18T15:22:50.158Z,994.337
2023-11-18T15:24:50.188Z,994.329
2023-11-18T15:26:52.108Z,994.263
2023-11-18T15:28:49.392Z,994.228
2023-11-18T15:30:49.405Z,994.112
2023-11-18T15:32:49.653Z,994.096
2023-11-18T15:34:49.915Z,994.096
2023-11-18T15:36:50.009Z,994.184
2023-11-18T15:38:50.045Z,994.132
2023-11-18T15:40:50.097Z,994.136
2023-11-18T15:42:50.210Z,994.210
2023-11-18T15:44:50.288Z,994.102
2023-11-18T15:46:50.357Z,994.143
2023-11-18T15:48:49.582Z,994.078
2023-11-18T15:50:49.726Z,994.196
2023-11-18T15:52:49.877Z,994.264
2023-11-18T15:54:50.042Z,994.295
2023-11-18T15:56:50.162Z,994.268
2023-11-18T15:58:50.275Z,994.285
2023-11-18T16:00:49.470Z,994.227
2023-11-18T16:02:49.809Z,994.303
2023-11-18T16:04:50.124Z,994.282
2023-11-18T16:06:50.222Z,994.294
2023-11-18T16:08:49.480Z,994.412
2023-11-18T16:10:49.733Z,994.447
2023-11-18T16:12:49.766Z,994.391
2023-11-18T16:14:49.997Z,994.350
2023-11-18T16:16:50.226Z,994.503
2023-11-18T16:18:50.172Z,994.342
2023-11-18T16:20:50.297Z,994.438
2023-11-18T16:22:49.518Z,994.510
2023-11-18T16:24:49.639Z,994.491
2023-11-18T16:26:49.798Z,994.466
2023-11-18T16:28:49.904Z,994.498
2023-11-18T16:30:49.949Z,994.422
2023-11-18T16:32:50.855Z,994.394
2023-11-18T16:34:49.485Z,994.356
2023-11-18T16:36:49.759Z,994.361
2023-11-18T16:38:50.025Z,994.260
2023-11-18T16:40:50.198Z,994.303
2023-11-18T16:42:50.252Z,994.358
2023-11-18T16:44:49.556Z,994.344
2023-11-18T16:46:49.826Z,994.395
2023-11-18T16:48:49.955Z,994.401
2023-11-18T16:50:50.099Z,994.291
2023-11-18T16:52:50.319Z,994.219
2023-11-18T16:54:49.414Z,994.096
2023-11-18T16:56:49.708Z,994.178
2023-11-18T16:58:49.939Z,994.132
2023-11-18T17:00:50.008Z,994.105
2023-11-18T17:02:50.170Z,994.180
2023-11-18T17:04:49.577Z,994.138
2023-11-18T17:06:49.743Z,994.052
2023-11-18T17:08:49.873Z,994.023
2023-11-18T17:10:50.079Z,994.055
2023-11-18T17:12:50.334Z,994.110
2023-11-18T17:14:49.453Z,994.032
2023-11-18T17:16:49.574Z,994.043
2023-11-18T17:18:49.854Z,994.107
2023-11-18T17:20:50.062Z,993.990
2023-11-18T17:22:50.113Z,993.985
2023-11-18T17:24:50.178Z,993.885
2023-11-18T17:26:50.127Z,993.867
2023-11-18T17:28:50.185Z,993.863
2023-11-18T17:30:50.106Z,993.932
2023-11-18T17:32:50.240Z,993.783
2023-11-18T17:34:49.488Z,993.879
2023-11-18T17:36:49.743Z,993.855
2023-11-18T17:38:49.839Z,993.800
2023-11-18T17:40:49.929Z,993.728
2023-11-18T17:42:52.483Z,993.735
2023-11-18T17:44:49.446Z,993.631
2023-11-18T17:46:49.559Z,993.600
2023-11-18T17:48:49.677Z,993.619
2023-11-18T17:50:49.799Z,993.540
2023-11-18T17:52:49.788Z,993.525
2023-11-18T17:54:50.020Z,993.612
2023-11-18T17:56:50.028Z,993.604
2023-11-18T17:58:50.196Z,993.408
2023-11-18T18:00:50.385Z,993.326
2023-11-18T18:02:49.616Z,993.330
2023-11-18T18:04:49.890Z,993.277
2023-11-18T18:06:49.859Z,993.217
2023-11-18T18:08:49.945Z,993.168
2023-11-18T18:10:50.044Z,993.149
2023-11-18T18:12:49.931Z,993.081
2023-11-18T18:14:49.918Z,993.083
2023-11-18T18:16:50.130Z,993.067
2023-11-18T18:18:50.166Z,993.094
2023-11-18T18:20:49.547Z,993.058
2023-11-18T18:22:49.786Z,993.052
2023-11-18T18:24:49.934Z,992.915
2023-11-18T18:26:49.944Z,992.870
2023-11-18T18:28:49.973Z,992.719
2023-11-18T18:30:50.041Z,992.736
2023-11-18T18:32:50.658Z,992.733
2023-11-18T18:34:50.099Z,992.723
2023-11-18T18:36:50.244Z,992.608
2023-11-18T18:38:49.364Z,992.614
2023-11-18T18:40:50.330Z,992.630
2023-11-18T18:42:49.482Z,992.446
2023-11-18T18:44:49.641Z,992.374
2023-11-18T18:46:49.782Z,992.470
2023-11-18T18:48:49.856Z,992.393
2023-11-18T18:50:50.033Z,992.411
2023-11-18T18:52:50.168Z,992.360
2023-11-18T18:54:50.231Z,992.347
2023-11-18T18:56:49.511Z,992.381
2023-11-18T18:58:49.675Z,992.347
2023-11-18T19:00:49.820Z,992.311
2023-11-18T19:02:49.932Z,992.339
2023-11-18T19:04:50.246Z,992.331
2023-11-18T19:06:49.603Z,992.414
2023-11-18T19:08:49.700Z,992.469
2023-11-18T19:10:49.947Z,992.385
2023-11-18T19:12:50.162Z,992.428
2023-11-18T19:14:50.320Z,992.397
2023-11-18T19:16:49.493Z,992.455
2023-11-18T19:18:49.726Z,992.452
2023-11-18T19:20:49.731Z,992.372
2023-11-18T19:22:49.914Z,992.378
2023-11-18T19:24:50.083Z,992.196
2023-11-18T19:26:50.315Z,992.186
2023-11-18T19:28:49.470Z,992.140
2023-11-18T19:30:49.582Z,992.101
2023-11-18T19:32:49.734Z,991.979
2023-11-18T19:34:49.990Z,991.926
2023-11-18T19:36:50.059Z,991.784
2023-11-18T19:38:50.127Z,991.720
2023-11-18T19:40:49.366Z,991.726
2023-11-18T19:42:49.480Z,991.744
2023-11-18T19:44:49.627Z,991.656
2023-11-18T19:46:49.679Z,991.561
2023-11-18T19:48:49.809Z,991.589
2023-11-18T19:50:50.096Z,991.460
2023-11-18T19:52:50.364Z,991.370
2023-11-18T19:54:49.670Z,991.349
2023-11-18T19:56:49.781Z,991.368
2023-11-18T19:58:49.973Z,991.345
2023-11-18T20:00:50.195Z,991.290
2023-11-18T20:02:50.520Z,991.113
2023-11-18T20:04:49.794Z,991.033
2023-11-18T20:06:49.885Z,991.009
2023-11-18T20:08:49.827Z,991.087
2023-11-18T20:10:49.914Z,991.141
2023-11-18T20:12:50.078Z,991.088
2023-11-18T20:14:50.315Z,990.908
2023-11-18T20:16:49.610Z,990.878
2023-11-18T20:18:49.818Z,990.811
2023-11-18T20:20:49.832Z,990.672
2023-11-18T20:22:54.952Z,990.713
2023-11-18T20:24:49.626Z,990.579
2023-11-18T20:26:49.828Z,990.801
2023-11-18T20:28:49.882Z,990.873
2023-11-18T20:30:50.121Z,991.051
2023-11-18T20:32:50.361Z,991.119
2023-11-18T20:34:49.446Z,991.157
2023-11-18T20:36:49.613Z,991.211
2023-11-18T20:38:49.812Z,991.137
2023-11-18T20:40:49.893Z,990.857
2023-11-18T20:42:50.044Z,990.750
2023-11-18T20:44:50.166Z,990.815
2023-11-18T20:46:49.481Z,990.629
2023-11-18T20:48:49.822Z,990.520
2023-11-18T20:50:49.845Z,990.552
2023-11-18T20:52:49.944Z,990.446
2023-11-18T20:54:49.966Z,990.511
2023-11-18T20:56:50.157Z,990.686
2023-11-18T20:58:50.319Z,990.686
2023-11-18T21:00:49.385Z,990.605
2023-11-18T21:02:49.583Z,990.605
2023-11-18T21:04:50.161Z,990.686
2023-11-18T21:06:49.651Z,990.658
2023-11-18T21:08:49.770Z,990.484
2023-11-18T21:10:49.859Z,990.369
2023-11-18T21:12:49.980Z,990.381
2023-11-18T21:14:50.007Z,990.380
2023-11-18T21:16:50.092Z,990.288
2023-11-18T21:18:50.170Z,990.205
2023-11-18T21:20:50.283Z,990.253
2023-11-18T21:22:49.493Z,990.088
2023-11-18T21:24:49.732Z,990.192
2023-11-18T21:26:49.780Z,990.119
2023-11-18T21:28:50.019Z,990.057
2023-11-18T21:30:50.083Z,989.964
2023-11-18T21:32:50.398Z,989.863
2023-11-18T21:34:49.753Z,989.699
2023-11-18T21:36:49.800Z,989.830
2023-11-18T21:40:49.894Z,989.894
2023-11-18T21:42:49.927Z,989.892
2023-11-18T21:44:50.047Z,989.946
2023-11-18T21:46:50.125Z,989.800
2023-11-18T21:48:50.213Z,989.710
2023-11-18T21:50:50.264Z,989.639
2023-11-18T21:52:49.385Z,989.510
2023-11-18T21:54:49.435Z,989.503
2023-11-18T21:56:49.672Z,989.515
2023-11-18T21:58:49.910Z,989.486
2023-11-18T22:00:50.144Z,989.529
2023-11-18T22:02:50.646Z,989.630
2023-11-18T22:04:50.014Z,989.624
2023-11-18T22:06:52.573Z,989.555
2023-11-18T22:08:49.630Z,989.487
2023-11-18T22:10:49.766Z,989.426
2023-11-18T22:12:53.258Z,989.459
2023-11-18T22:14:49.745Z,989.408
2023-11-18T22:16:49.991Z,989.433
2023-11-18T22:18:50.029Z,989.424
2023-11-18T22:20:50.088Z,989.400
2023-11-18T22:22:50.492Z,989.306
2023-11-18T22:24:49.582Z,989.293
2023-11-18T22:26:51.502Z,989.283
2023-11-18T22:28:49.795Z,989.190
2023-11-18T22:30:49.785Z,989.114
2023-11-18T22:32:49.942Z,989.067
2023-11-18T22:34:50.132Z,989.105
2023-11-18T22:36:50.227Z,989.045
2023-11-18T22:38:50.322Z,989.000
2023-11-18T22:40:50.351Z,988.951
2023-11-18T22:42:49.592Z,988.978
2023-11-18T22:44:49.842Z,989.022
2023-11-18T22:46:49.981Z,988.916
2023-11-18T22:48:50.162Z,988.982
2023-11-18T22:50:49.509Z,989.072
2023-11-18T22:52:49.825Z,989.004
2023-11-18T22:54:49.913Z,988.956
2023-11-18T22:56:49.898Z,988.946
2023-11-18T22:58:50.002Z,988.964
2023-11-18T23:00:50.192Z,988.870
2023-11-18T23:02:49.421Z,988.939
2023-11-18T23:04:49.834Z,988.809
2023-11-18T23:06:49.902Z,988.823
2023-11-18T23:08:49.994Z,988.799
2023-11-18T23:10:50.359Z,988.792
2023-11-18T23:12:49.462Z,988.725
2023-11-18T23:14:49.506Z,988.783
2023-11-18T23:16:49.824Z,988.768
2023-11-18T23:18:50.078Z,988.716
2023-11-18T23:20:50.164Z,988.766
2023-11-18T23:22:50.143Z,988.604
2023-11-18T23:24:50.108Z,988.582
2023-11-18T23:26:50.280Z,988.531
2023-11-18T23:28:49.414Z,988.561
2023-11-18T23:30:49.801Z,988.461
2023-11-18T23:32:50.095Z,988.468
2023-11-18T23:34:50.295Z,988.395
2023-11-18T23:36:49.405Z,988.369
2023-11-18T23:38:49.631Z,988.355
2023-11-18T23:40:49.776Z,988.233
2023-11-18T23:42:49.994Z,988.296
2023-11-18T23:44:50.202Z,988.296
2023-11-18T23:46:50.332Z,988.160
2023-11-18T23:48:49.471Z,988.251
2023-11-18T23:50:49.705Z,988.169
2023-11-18T23:52:49.785Z,988.072
2023-11-18T23:54:49.884Z,988.082
2023-11-18T23:56:50.254Z,988.036
2023-11-18T23:58:49.382Z,988.119
